Time;durP1;ratioP1;P1;durP2;ratioP2;P2;SDS_P1;SDS_P2;PMS_P1;PMS_P2;Temp;Humidity;BMP_temperature;BMP_pressure;BME280_temperature;BME280_humidity;BME280_pressure;Samples;Min_cycle;Max_cycle;Signal;HPM_P1;HPM_P2
2024/03/13 00:01:45;;;;;;;35.10;23.90;;;;;;;5.50;94.11;99900.72;103144;1256;138297;-72
2024/03/13 00:04:12;;;;;;;36.20;24.30;;;;;;;5.54;94.11;99898.42;103229;1256;108252;-71
2024/03/13 00:06:38;;;;;;;37.20;24.00;;;;;;;5.56;94.05;99900.97;103246;1253;139666;-73
2024/03/13 00:09:07;;;;;;;36.10;23.80;;;;;;;5.61;94.03;99901.59;103253;1253;107749;-73
2024/03/13 00:11:34;;;;;;;32.70;23.80;;;;;;;5.64;94.03;99901.86;104074;1255;95832;-72
2024/03/13 00:14:02;;;;;;;35.20;23.80;;;;;;;5.68;93.65;99903.17;104170;1256;138148;-72
2024/03/13 00:16:31;;;;;;;32.90;23.60;;;;;;;5.70;93.48;99903.98;103227;1254;108205;-73
2024/03/13 00:18:58;;;;;;;37.50;25.10;;;;;;;5.72;93.23;99908.42;103539;1258;138387;-73
2024/03/13 00:21:28;;;;;;;38.70;26.60;;;;;;;5.73;93.13;99906.52;103253;1254;107197;-73
2024/03/13 00:23:55;;;;;;;35.90;24.50;;;;;;;5.75;92.99;99907.02;103218;1254;97665;-73
2024/03/13 00:26:22;;;;;;;39.20;25.40;;;;;;;5.75;92.90;99908.39;103295;1256;111491;-73
2024/03/13 00:28:49;;;;;;;35.50;24.70;;;;;;;5.74;92.73;99907.38;103205;1254;108267;-73
2024/03/13 00:31:16;;;;;;;35.80;23.40;;;;;;;5.72;92.63;99904.30;103180;1254;138339;-72
2024/03/13 00:33:43;;;;;;;38.70;24.10;;;;;;;5.68;92.31;99904.72;103216;1255;108029;-71
2024/03/13 00:36:10;;;;;;;35.90;22.80;;;;;;;5.67;92.08;99904.91;103199;1258;138559;-73
2024/03/13 00:38:37;;;;;;;36.10;23.90;;;;;;;5.63;91.95;99904.13;103322;1254;110746;-73
2024/03/13 00:41:04;;;;;;;34.50;24.60;;;;;;;5.59;91.94;99902.13;103288;1254;108247;-72
2024/03/13 00:43:32;;;;;;;33.30;23.30;;;;;;;5.56;91.92;99903.54;103189;1254;138705;-73
2024/03/13 00:46:01;;;;;;;36.00;24.00;;;;;;;5.57;92.47;99901.83;104232;1254;107412;-72
2024/03/13 00:48:31;;;;;;;36.10;24.20;;;;;;;5.58;92.29;99899.40;103221;1253;138737;-73
2024/03/13 00:51:00;;;;;;;36.00;23.70;;;;;;;5.58;92.29;99898.52;103286;1256;110917;-72
2024/03/13 00:53:27;;;;;;;32.70;22.90;;;;;;;5.57;92.23;99899.06;103904;1254;107879;-72
2024/03/13 00:55:58;;;;;;;33.80;23.80;;;;;;;5.59;92.43;99897.82;103552;1256;138460;-72
2024/03/13 00:58:26;;;;;;;37.50;24.30;;;;;;;5.60;92.40;99898.33;103476;1257;107883;-72
2024/03/13 01:00:53;;;;;;;33.50;23.10;;;;;;;5.60;92.37;99897.81;103986;1254;138417;-72
2024/03/13 01:03:22;;;;;;;36.80;25.30;;;;;;;5.61;92.47;99895.36;103277;1256;111267;-71
2024/03/13 01:05:49;;;;;;;34.30;25.30;;;;;;;5.62;92.46;99895.86;103457;1258;107782;-72
2024/03/13 01:08:16;;;;;;;41.40;26.20;;;;;;;5.65;92.75;99896.67;103536;1252;139176;-71
2024/03/13 01:10:43;;;;;;;36.90;25.30;;;;;;;5.69;93.10;99900.23;102534;1253;1003394;-71
2024/03/13 01:13:11;;;;;;;40.30;26.50;;;;;;;5.73;93.08;99901.16;103117;1257;138512;-72
2024/03/13 01:15:38;;;;;;;42.10;29.50;;;;;;;5.78;93.31;99896.62;103275;1254;109439;-72
2024/03/13 01:18:09;;;;;;;44.00;28.10;;;;;;;5.82;93.19;99899.99;103646;1255;138524;-72
2024/03/13 01:20:36;;;;;;;50.00;29.80;;;;;;;5.86;93.44;99898.70;103270;1257;97827;-72
2024/03/13 01:23:03;;;;;;;51.30;33.20;;;;;;;5.88;93.38;99897.28;103243;1254;107763;-72
2024/03/13 01:25:30;;;;;;;48.10;31.50;;;;;;;5.89;93.12;99896.40;103182;1257;140048;-72
2024/03/13 01:27:57;;;;;;;50.50;31.70;;;;;;;5.89;93.09;99897.27;103590;1254;110188;-71
2024/03/13 01:30:24;;;;;;;49.30;31.40;;;;;;;5.90;93.02;99900.89;103103;1257;138687;-71
2024/03/13 01:32:51;;;;;;;52.20;31.80;;;;;;;5.90;92.97;99899.51;103273;1254;97815;-73
2024/03/13 01:35:19;;;;;;;42.10;27.60;;;;;;;5.90;92.72;99898.46;103223;1254;107994;-71
2024/03/13 01:38:01;;;;;;;45.40;27.60;;;;;;;5.89;92.67;99897.61;103176;1255;138478;-71
2024/03/13 01:54:50;;;;;;;38.60;26.70;;;;;;;5.87;92.51;99895.91;103240;1254;110619;-71
2024/03/13 01:54:54;;;;;;;;;;;;;;;5.76;92.33;99894.58;103158;1256;138142;-73
2024/03/13 01:57:31;;;;;;;37.00;24.20;;;;;;;5.75;92.47;99891.49;103344;1254;107269;-72
2024/03/13 02:02:46;;;;;;;37.00;26.90;;;;;;;5.71;92.27;99892.77;103795;1256;107477;-72
2024/03/13 02:05:15;;;;;;;37.00;25.40;;;;;;;5.71;92.37;99892.77;103192;1258;98496;-72
2024/03/13 02:07:42;;;;;;;38.90;26.90;;;;;;;5.71;92.43;99895.51;103167;1257;138089;-70
2024/03/13 02:10:10;;;;;;;35.20;25.80;;;;;;;5.70;92.15;99891.55;103227;1258;106682;-71
2024/03/13 02:12:38;;;;;;;33.70;25.30;;;;;;;5.69;92.20;99896.94;103160;1254;139632;-73
2024/03/13 02:15:05;;;;;;;40.40;26.60;;;;;;;5.69;92.28;99897.11;103231;1256;107857;-71
2024/03/13 02:17:38;;;;;;;40.10;26.90;;;;;;;5.70;92.25;99897.61;103276;1256;97870;-74
2024/03/13 02:20:10;;;;;;;36.90;26.10;;;;;;;5.69;92.10;99898.15;103175;1256;138448;-73
2024/03/13 02:22:41;;;;;;;;;;;;;;;5.68;92.22;99895.41;103291;1254;107915;-72
2024/03/13 02:25:08;;;;;;;39.80;27.70;;;;;;;5.66;92.24;99897.34;103103;1254;124495;-74
2024/03/13 02:27:33;;;;;;;41.80;28.10;;;;;;;5.64;92.27;99893.75;103035;1254;106879;-73
2024/03/13 02:29:58;;;;;;;40.20;27.30;;;;;;;5.65;92.41;99898.73;103059;1254;98196;-72
2024/03/13 02:32:22;;;;;;;38.40;26.80;;;;;;;5.65;92.38;99898.56;103104;1259;113024;-72
2024/03/13 02:34:47;;;;;;;43.30;27.40;;;;;;;5.68;92.34;99900.92;103031;1254;108072;-72
2024/03/13 02:37:11;;;;;;;40.10;27.20;;;;;;;5.68;92.28;99900.23;102980;1254;138608;-71
2024/03/13 02:39:36;;;;;;;37.50;27.10;;;;;;;5.69;92.21;99903.14;103058;1256;108731;-72
2024/03/13 02:42:01;;;;;;;43.00;27.00;;;;;;;5.69;92.12;99902.28;103046;1260;97803;-72
2024/03/13 02:44:26;;;;;;;41.90;27.80;;;;;;;5.69;92.06;99904.52;103051;1261;110192;-72
2024/03/13 02:46:50;;;;;;;42.50;26.70;;;;;;;5.69;91.98;99907.11;102892;1261;107403;-72
2024/03/13 02:49:15;;;;;;;42.00;28.30;;;;;;;5.69;91.97;99907.47;102853;1261;138366;-73
2024/03/13 02:51:39;;;;;;;36.40;26.60;;;;;;;5.68;91.97;99906.44;102988;1256;107354;-72
2024/03/13 02:54:04;;;;;;;43.50;27.80;;;;;;;5.68;91.89;99909.90;102898;1261;138837;-72
2024/03/13 02:56:28;;;;;;;38.80;27.20;;;;;;;5.67;91.86;99908.19;103140;1254;110258;-72
2024/03/13 02:58:52;;;;;;;40.50;27.00;;;;;;;5.68;91.90;99907.14;103068;1256;106650;-73
2024/03/13 03:01:17;;;;;;;36.70;26.90;;;;;;;5.68;91.77;99909.55;102973;1256;140399;-72
2024/03/13 03:03:42;;;;;;;37.40;26.80;;;;;;;5.68;91.88;99911.27;102999;1261;106744;-73
2024/03/13 03:06:06;;;;;;;34.60;26.10;;;;;;;5.69;92.03;99912.63;102876;1256;138632;-72
2024/03/13 03:08:32;;;;;;;35.40;25.70;;;;;;;5.69;91.61;99913.68;103030;1256;111286;-72
2024/03/13 03:10:56;;;;;;;40.60;27.60;;;;;;;5.69;91.81;99916.42;103160;1256;105644;-73
2024/03/13 03:13:23;;;;;;;37.20;26.40;;;;;;;5.71;91.76;99916.73;103027;1254;140765;-72
2024/03/13 03:15:48;;;;;;;32.70;25.50;;;;;;;5.72;91.76;99916.70;103055;1261;107081;-72
2024/03/13 03:18:13;;;;;;;36.40;26.00;;;;;;;5.74;91.85;99918.41;102891;1261;138605;-72
2024/03/13 03:20:37;;;;;;;36.00;26.60;;;;;;;5.75;91.93;99917.88;103135;1254;111524;-72
2024/03/13 03:23:01;;;;;;;35.80;25.20;;;;;;;5.76;91.72;99920.29;103107;1258;108057;-72
2024/03/13 03:25:28;;;;;;;35.30;25.60;;;;;;;5.77;91.67;99919.59;102867;1254;138400;-72
2024/03/13 03:27:53;;;;;;;33.80;23.40;;;;;;;5.78;91.32;99922.33;103078;1254;107958;-71
2024/03/13 03:30:18;;;;;;;31.80;22.90;;;;;;;5.77;91.35;99920.27;103012;1254;138516;-71
2024/03/13 03:32:42;;;;;;;29.80;23.20;;;;;;;5.77;91.29;99922.16;103133;1254;111637;-71
2024/03/13 03:35:07;;;;;;;30.80;22.80;;;;;;;5.79;91.23;99921.79;103093;1256;108342;-71
2024/03/13 03:37:31;;;;;;;34.10;23.50;;;;;;;5.80;91.22;99921.77;103016;1253;138469;-73
2024/03/13 03:39:56;;;;;;;36.80;22.70;;;;;;;5.80;91.35;99921.59;103140;1259;107479;-72
2024/03/13 03:42:20;;;;;;;29.50;21.10;;;;;;;5.79;91.08;99920.06;102955;1254;138692;-72
2024/03/13 03:44:44;;;;;;;31.10;22.40;;;;;;;5.79;91.06;99922.65;103192;1254;111332;-72
2024/03/13 03:47:10;;;;;;;33.10;24.20;;;;;;;5.80;91.13;99921.25;103042;1260;106808;-72
2024/03/13 03:49:34;;;;;;;29.70;22.20;;;;;;;5.80;90.89;99920.05;102960;1260;138532;-72
2024/03/13 03:51:59;;;;;;;32.40;23.40;;;;;;;5.81;90.83;99922.61;103016;1256;107159;-71
2024/03/13 03:54:23;;;;;;;28.80;21.30;;;;;;;5.82;90.99;99927.77;102992;1253;138670;-71
2024/03/13 03:56:48;;;;;;;30.50;22.00;;;;;;;5.84;91.24;99924.62;103110;1254;110361;-72
2024/03/13 03:59:13;;;;;;;30.30;22.10;;;;;;;5.85;91.15;99924.77;103139;1261;109069;-71
2024/03/13 04:01:37;;;;;;;31.30;21.50;;;;;;;5.88;91.13;99929.55;103072;1254;139024;-71
2024/03/13 04:04:03;;;;;;;28.00;21.10;;;;;;;5.89;90.87;99931.44;103115;1258;107184;-71
2024/03/13 04:06:28;;;;;;;26.30;19.80;;;;;;;5.88;90.76;99930.40;102985;1254;138518;-71
2024/03/13 04:08:52;;;;;;;26.00;19.70;;;;;;;5.86;90.65;99930.79;103112;1260;110948;-71
2024/03/13 04:11:16;;;;;;;26.50;20.20;;;;;;;5.83;90.58;99931.88;103067;1256;107923;-71
2024/03/13 04:13:41;;;;;;;25.70;20.40;;;;;;;5.85;90.70;99935.30;102953;1255;139035;-70
2024/03/13 04:16:07;;;;;;;29.20;20.60;;;;;;;5.86;90.91;99936.48;103088;1254;107527;-71
2024/03/13 04:18:31;;;;;;;30.90;20.90;;;;;;;5.88;90.95;99936.27;103028;1253;138677;-71
2024/03/13 04:20:56;;;;;;;28.80;21.20;;;;;;;5.88;90.76;99937.13;103140;1254;112055;-72
2024/03/13 04:23:20;;;;;;;29.80;21.50;;;;;;;5.88;90.89;99939.72;103154;1260;109034;-71
2024/03/13 04:25:46;;;;;;;30.20;22.40;;;;;;;5.86;90.71;99941.31;102988;1254;138642;-72
2024/03/13 04:28:11;;;;;;;28.60;22.70;;;;;;;5.83;90.77;99933.44;103073;1261;107695;-72
2024/03/13 04:30:36;;;;;;;32.70;23.00;;;;;;;5.84;90.71;99942.05;102942;1254;138571;-73
2024/03/13 04:33:00;;;;;;;32.70;22.90;;;;;;;5.82;90.82;99941.73;103106;1254;112095;-72
2024/03/13 04:35:25;;;;;;;31.50;22.60;;;;;;;5.82;90.92;99944.49;103015;1254;108570;-72
2024/03/13 04:37:50;;;;;;;30.70;23.20;;;;;;;5.82;90.92;99947.42;102880;1256;138459;-72
2024/03/13 04:40:15;;;;;;;33.40;23.40;;;;;;;5.82;90.92;99948.46;103073;1254;107286;-72
2024/03/13 04:42:40;;;;;;;30.70;23.10;;;;;;;5.81;90.97;99949.70;103049;1260;138883;-72
2024/03/13 04:45:06;;;;;;;37.10;22.60;;;;;;;5.81;90.93;99950.05;103012;1256;111255;-72
2024/03/13 04:47:31;;;;;;;33.10;23.00;;;;;;;5.78;90.69;99948.19;102972;1257;107275;-72
2024/03/13 04:49:57;;;;;;;29.20;21.40;;;;;;;5.75;90.65;99946.87;103009;1254;138651;-72
2024/03/13 04:52:23;;;;;;;34.30;22.50;;;;;;;5.72;90.55;99948.45;103169;1256;107870;-72
2024/03/13 04:54:47;;;;;;;33.40;21.80;;;;;;;5.69;90.81;99948.85;103041;1254;138555;-71
2024/03/13 04:57:12;;;;;;;32.80;22.30;;;;;;;5.65;90.95;99951.86;103086;1256;112328;-70
2024/03/13 04:59:36;;;;;;;33.20;22.80;;;;;;;5.62;91.00;99957.44;103231;1258;107869;-70
2024/03/13 05:02:02;;;;;;;35.50;23.30;;;;;;;5.59;91.09;99958.36;102970;1256;138574;-71
2024/03/13 05:04:26;;;;;;;31.20;22.30;;;;;;;5.55;90.85;99958.93;103080;1260;108966;-71
2024/03/13 05:06:52;;;;;;;33.50;22.90;;;;;;;5.55;91.09;99963.58;103027;1254;138577;-71
2024/03/13 05:09:16;;;;;;;36.70;23.20;;;;;;;5.55;91.27;99962.72;103126;1255;110411;-71
2024/03/13 05:11:41;;;;;;;31.30;23.30;;;;;;;5.55;91.50;99967.02;102988;1260;107053;-72
2024/03/13 05:14:06;;;;;;;34.20;23.10;;;;;;;5.55;91.25;99966.85;103061;1254;138346;-72
2024/03/13 05:16:30;;;;;;;36.30;23.70;;;;;;;5.53;91.46;99967.77;103040;1256;108074;-72
2024/03/13 05:18:55;;;;;;;37.10;24.80;;;;;;;5.53;91.41;99973.27;103003;1254;138395;-71
2024/03/13 05:21:19;;;;;;;34.90;24.60;;;;;;;5.51;91.32;99972.08;103132;1256;110206;-71
2024/03/13 05:23:43;;;;;;;37.20;24.20;;;;;;;5.52;91.41;99975.19;103137;1260;106604;-71
2024/03/13 05:26:08;;;;;;;36.40;25.00;;;;;;;5.53;91.46;99981.90;102975;1255;140288;-68
2024/03/13 05:28:32;;;;;;;35.90;25.50;;;;;;;5.51;91.43;99983.48;102925;1254;107711;-71
2024/03/13 05:30:57;;;;;;;38.60;27.10;;;;;;;5.52;91.43;99987.25;102955;1254;139073;-72
2024/03/13 05:33:21;;;;;;;41.00;27.50;;;;;;;5.53;91.45;99988.80;101645;1254;1003603;-71
2024/03/13 05:35:45;;;;;;;39.10;27.90;;;;;;;5.49;91.53;99985.39;103102;1254;106810;-71
2024/03/13 05:38:09;;;;;;;42.70;29.50;;;;;;;5.57;91.55;99994.61;103057;1258;138744;-72
2024/03/13 05:40:34;;;;;;;39.50;28.00;;;;;;;5.59;91.62;99995.27;103152;1260;107019;-70
2024/03/13 05:42:58;;;;;;;38.80;29.10;;;;;;;5.61;91.53;99995.74;103021;1255;140582;-72
2024/03/13 05:45:23;;;;;;;45.60;29.90;;;;;;;5.62;91.39;99998.67;103153;1254;112570;-72
2024/03/13 05:47:49;;;;;;;;;;;;;;;5.65;91.43;99999.65;103104;1261;106501;-70
2024/03/13 05:50:17;;;;;;;40.00;27.20;;;;;;;5.65;91.62;100004.82;103153;1256;125222;-73
2024/03/13 05:52:41;;;;;;;35.30;26.40;;;;;;;5.66;91.74;100002.56;103372;1253;106703;-74
2024/03/13 05:55:06;;;;;;;39.30;27.00;;;;;;;5.69;91.71;100006.29;102996;1256;138832;-73
2024/03/13 05:57:30;;;;;;;35.80;26.00;;;;;;;5.70;91.58;100008.34;103133;1254;110955;-74
2024/03/13 05:59:55;;;;;;;37.80;26.40;;;;;;;5.71;91.38;100005.06;103025;1260;107757;-73
2024/03/13 06:02:19;;;;;;;36.00;25.30;;;;;;;5.69;91.11;100011.63;103019;1260;138826;-75
2024/03/13 06:04:45;;;;;;;40.80;25.70;;;;;;;5.69;91.29;100008.71;103119;1256;105802;-73
2024/03/13 06:07:09;;;;;;;37.20;24.40;;;;;;;5.68;90.91;100014.41;103013;1254;138606;-74
2024/03/13 06:09:34;;;;;;;34.80;24.30;;;;;;;5.66;91.03;100014.45;103103;1253;111142;-76
2024/03/13 06:11:58;;;;;;;35.60;24.80;;;;;;;5.64;90.93;100015.18;103114;1254;106321;-75
2024/03/13 06:14:22;;;;;;;34.10;24.30;;;;;;;5.64;90.89;100016.22;102910;1261;138318;-75
2024/03/13 06:16:46;;;;;;;37.50;24.20;;;;;;;5.63;91.00;100020.36;103081;1256;107653;-74
2024/03/13 06:19:11;;;;;;;34.20;24.00;;;;;;;5.63;91.05;100022.45;102964;1262;139080;-74
2024/03/13 06:21:36;;;;;;;31.60;21.50;;;;;;;5.63;91.19;100023.65;103071;1256;110772;-74
2024/03/13 06:24:05;;;;;;;35.30;22.10;;;;;;;5.63;90.97;100021.06;103083;1260;107778;-74
2024/03/13 06:26:29;;;;;;;34.50;22.70;;;;;;;5.63;90.88;100024.52;103122;1260;98341;-75
2024/03/13 06:31:39;;;;;;;31.00;21.90;;;;;;;5.64;91.04;100027.95;102969;1260;139703;-72
2024/03/13 06:34:04;;;;;;;29.40;21.40;;;;;;;5.64;90.74;100030.37;102976;1261;111234;-74
2024/03/13 06:36:28;;;;;;;33.80;22.70;;;;;;;5.63;90.87;100035.39;102904;1261;138623;-79
2024/03/13 06:38:52;;;;;;;30.50;22.20;;;;;;;5.63;90.90;100038.48;103126;1254;97976;-78
2024/03/13 06:41:17;;;;;;;32.40;21.90;;;;;;;5.65;91.26;100039.32;103097;1256;107607;-74
2024/03/13 06:43:41;;;;;;;34.00;23.10;;;;;;;5.65;90.98;100041.90;102933;1260;210748;-73
2024/03/13 06:46:07;;;;;;;31.90;21.40;;;;;;;5.64;90.96;100042.95;104456;1256;111138;-74
2024/03/13 06:48:31;;;;;;;31.90;23.30;;;;;;;5.64;90.85;100045.54;104340;1256;139368;-74
2024/03/13 06:50:55;;;;;;;27.00;22.00;;;;;;;5.63;90.90;100045.55;104480;1254;96112;-73
2024/03/13 06:53:20;;;;;;;33.60;23.50;;;;;;;5.63;90.66;100047.81;104441;1256;107502;-73
2024/03/13 06:55:45;;;;;;;32.30;23.40;;;;;;;5.63;90.73;100047.63;104331;1257;139069;-75
2024/03/13 06:58:11;;;;;;;30.30;23.30;;;;;;;5.64;90.53;100049.33;103413;1260;111416;-74
2024/03/13 07:00:35;;;;;;;32.50;23.90;;;;;;;5.65;90.86;100052.42;102935;1256;138879;-77
2024/03/13 07:03:01;;;;;;;35.80;24.40;;;;;;;5.67;90.75;100054.11;102797;1256;97798;-77
2024/03/13 07:05:29;;;;;;;33.90;24.20;;;;;;;5.69;90.82;100054.25;102915;1256;109079;-77
2024/03/13 07:07:53;;;;;;;30.50;23.30;;;;;;;5.72;90.87;100055.92;102854;1261;138744;-77
2024/03/13 07:10:17;;;;;;;36.80;23.90;;;;;;;5.74;90.77;100056.42;102886;1256;110327;-77
2024/03/13 07:12:42;;;;;;;35.20;24.60;;;;;;;5.78;90.74;100058.61;102871;1255;139014;-75
2024/03/13 07:15:09;;;;;;;37.50;24.90;;;;;;;5.77;90.70;100058.95;102948;1257;97731;-78
2024/03/13 07:17:33;;;;;;;36.00;25.30;;;;;;;5.81;90.92;100066.49;102951;1256;107070;-77
2024/03/13 07:19:57;;;;;;;37.90;26.40;;;;;;;5.85;90.99;100070.91;102777;1256;142638;-74
2024/03/13 07:22:22;;;;;;;42.00;27.20;;;;;;;5.87;90.73;100071.90;102974;1256;112399;-74
2024/03/13 07:24:46;;;;;;;41.40;26.20;;;;;;;5.91;90.72;100076.19;102797;1260;140544;-77
2024/03/13 07:27:10;;;;;;;41.90;26.80;;;;;;;5.91;90.62;100073.27;102854;1256;97855;-75
2024/03/13 07:29:35;;;;;;;39.70;26.50;;;;;;;5.93;90.46;100076.17;102775;1256;107335;-73
2024/03/13 07:32:00;;;;;;;38.90;26.90;;;;;;;5.94;90.37;100076.16;102784;1255;138592;-74
2024/03/13 07:34:24;;;;;;;39.70;26.10;;;;;;;5.95;90.47;100075.63;102830;1257;111335;-76
2024/03/13 07:36:49;;;;;;;35.70;24.50;;;;;;;5.97;90.47;100076.29;102786;1256;139968;-74
2024/03/13 07:39:14;;;;;;;36.60;24.50;;;;;;;5.98;90.40;100080.23;102915;1261;97894;-74
2024/03/13 07:41:39;;;;;;;31.20;23.50;;;;;;;5.99;90.28;100080.56;102860;1259;109587;-74
2024/03/13 07:44:05;;;;;;;31.80;22.10;;;;;;;6.02;90.50;100083.60;102812;1256;138928;-75
2024/03/13 07:46:29;;;;;;;32.30;22.20;;;;;;;6.04;90.37;100085.30;103007;1259;111038;-75
2024/03/13 07:48:53;;;;;;;30.70;22.40;;;;;;;6.06;90.37;100087.34;102759;1256;138616;-74
2024/03/13 07:51:18;;;;;;;48.00;31.30;;;;;;;6.11;90.58;100087.27;102795;1256;97860;-74
2024/03/13 07:53:42;;;;;;;34.00;23.30;;;;;;;6.16;90.58;100089.44;102768;1257;109434;-73
2024/03/13 07:56:06;;;;;;;30.00;20.60;;;;;;;6.20;90.29;100089.52;102673;1256;139076;-74
2024/03/13 07:58:31;;;;;;;26.60;20.10;;;;;;;6.23;90.07;100087.23;102767;1261;111158;-76
2024/03/13 08:00:55;;;;;;;28.80;19.90;;;;;;;6.24;89.88;100088.94;102673;1259;138956;-76
2024/03/13 08:03:20;;;;;;;49.10;22.90;;;;;;;6.30;90.06;100090.40;103138;1261;98286;-77
2024/03/13 08:05:44;;;;;;;40.10;21.30;;;;;;;6.39;90.69;100090.07;102914;1256;107310;-78
2024/03/13 08:08:08;;;;;;;27.10;20.10;;;;;;;6.50;90.97;100087.64;102701;1256;139734;-76
2024/03/13 08:10:50;;;;;;;26.30;20.50;;;;;;;6.61;90.37;100092.77;102909;1258;111316;-77
2024/03/13 08:13:32;;;;;;;25.30;18.90;;;;;;;6.65;89.65;100092.20;102834;1256;140125;-76
2024/03/13 08:16:15;;;;;;;26.70;19.00;;;;;;;6.66;89.36;100092.36;102974;1258;98354;-76
2024/03/13 08:18:58;;;;;;;27.30;18.70;;;;;;;6.72;89.44;100096.06;102860;1261;138499;-75
2024/03/13 08:21:40;;;;;;;31.20;19.80;;;;;;;6.73;88.81;100093.42;102855;1256;97903;-74
2024/03/13 08:24:26;;;;;;;26.30;19.50;;;;;;;6.73;88.50;100098.63;102764;1255;138510;-73
2024/03/13 08:27:08;;;;;;;27.60;18.90;;;;;;;6.73;88.12;100100.88;102903;1255;107393;-77
2024/03/13 08:29:50;;;;;;;29.00;19.80;;;;;;;6.72;88.06;100102.61;102811;1256;97691;-76
2024/03/13 08:32:32;;;;;;;26.60;19.30;;;;;;;6.73;88.13;100103.80;102928;1259;107063;-75
2024/03/13 08:35:14;;;;;;;26.10;19.30;;;;;;;6.78;88.22;100104.38;102907;1256;97847;-74
2024/03/13 08:37:58;;;;;;;25.10;18.80;;;;;;;6.84;88.10;100106.70;102795;1257;138610;-75
2024/03/13 08:40:40;;;;;;;26.00;18.80;;;;;;;6.86;87.77;100107.87;102879;1261;106551;-76
2024/03/13 08:43:23;;;;;;;26.70;18.50;;;;;;;6.90;87.75;100111.59;102767;1257;139077;-77
2024/03/13 08:46:05;;;;;;;25.70;19.00;;;;;;;6.93;87.49;100114.11;102752;1261;106945;-77
2024/03/13 08:48:46;;;;;;;26.80;18.60;;;;;;;6.91;87.10;100113.45;102700;1256;138706;-77
2024/03/13 08:51:29;;;;;;;28.50;20.10;;;;;;;6.93;87.10;100114.46;102806;1261;111709;-74
2024/03/13 08:54:11;;;;;;;26.00;19.50;;;;;;;6.97;87.07;100115.77;102872;1256;107926;-73
2024/03/13 08:56:53;;;;;;;26.20;18.20;;;;;;;7.00;87.06;100120.02;102762;1256;100121;-72
2024/03/13 08:59:34;;;;;;;25.70;18.00;;;;;;;7.02;86.63;100124.15;102874;1256;106989;-77
2024/03/13 09:02:17;;;;;;;27.40;19.10;;;;;;;7.02;86.45;100126.91;102719;1261;138856;-69
2024/03/13 09:04:59;;;;;;;24.20;17.80;;;;;;;7.03;86.43;100130.70;102111;1256;1003368;-68
2024/03/13 09:07:40;;;;;;;25.30;19.30;;;;;;;7.04;86.62;100130.69;102746;1253;138860;-68
2024/03/13 09:10:06;;;;;;;26.90;19.60;;;;;;;7.06;86.62;100126.31;102818;1259;97894;-68
2024/03/13 09:12:30;;;;;;;25.40;18.80;;;;;;;7.08;86.51;100126.10;102770;1255;138999;-67
2024/03/13 09:14:55;;;;;;;27.70;18.40;;;;;;;7.11;86.41;100128.96;102973;1261;97870;-67
2024/03/13 09:17:20;;;;;;;29.10;19.20;;;;;;;7.13;86.18;100125.99;102925;1256;110596;-66
2024/03/13 09:19:48;;;;;;;24.00;19.20;;;;;;;7.16;85.90;100126.97;102727;1261;138556;-68
2024/03/13 09:22:17;;;;;;;23.90;17.90;;;;;;;7.16;85.42;100128.70;102789;1256;97914;-66
2024/03/13 09:24:43;;;;;;;24.70;17.10;;;;;;;7.13;85.21;100124.42;102555;1256;138713;-67
2024/03/13 09:27:07;;;;;;;24.60;17.90;;;;;;;7.12;85.32;100123.76;102878;1256;97697;-68
2024/03/13 09:29:32;;;;;;;25.20;18.40;;;;;;;7.12;84.90;100124.30;102903;1254;111177;-69
2024/03/13 09:31:56;;;;;;;21.20;17.10;;;;;;;7.13;85.03;100129.10;102766;1262;138665;-69
2024/03/13 09:34:20;;;;;;;22.00;16.80;;;;;;;7.16;85.03;100135.43;102995;1260;98301;-69
2024/03/13 09:36:44;;;;;;;21.30;16.60;;;;;;;7.18;84.81;100135.59;102844;1259;139648;-68
2024/03/13 09:39:09;;;;;;;20.00;15.70;;;;;;;7.19;84.56;100140.06;102907;1256;98468;-69
2024/03/13 09:41:33;;;;;;;18.80;14.50;;;;;;;7.19;84.39;100142.14;102964;1261;110559;-69
2024/03/13 09:43:59;;;;;;;19.30;14.30;;;;;;;7.17;84.19;100142.52;102689;1256;139035;-67
2024/03/13 09:46:23;;;;;;;20.40;15.20;;;;;;;7.17;84.24;100148.55;102931;1259;99169;-67
2024/03/13 09:48:47;;;;;;;17.90;14.20;;;;;;;7.15;84.25;100152.23;102773;1256;138481;-68
2024/03/13 09:51:12;;;;;;;18.40;14.30;;;;;;;7.14;84.20;100153.45;102757;1256;97598;-69
2024/03/13 09:53:36;;;;;;;18.90;15.40;;;;;;;7.14;84.25;100154.16;102710;1256;110649;-68
2024/03/13 09:56:01;;;;;;;19.20;13.80;;;;;;;7.16;84.33;100157.73;102843;1256;139046;-68
2024/03/13 09:58:25;;;;;;;18.20;14.80;;;;;;;7.20;84.39;100158.91;102921;1256;98330;-69
2024/03/13 10:00:52;;;;;;;19.50;14.70;;;;;;;7.22;84.50;100159.90;102785;1257;139486;-69
2024/03/13 10:03:21;;;;;;;23.50;15.90;;;;;;;7.25;84.51;100163.63;102876;1256;97819;-70
2024/03/13 10:05:46;;;;;;;19.50;15.30;;;;;;;7.27;84.44;100166.52;102972;1260;111224;-70
2024/03/13 10:08:10;;;;;;;20.80;15.20;;;;;;;7.27;84.13;100169.63;102734;1256;138580;-69
2024/03/13 10:10:36;;;;;;;25.10;16.60;;;;;;;7.26;84.16;100168.27;102879;1261;99003;-70
2024/03/13 10:13:04;;;;;;;20.40;15.80;;;;;;;7.25;83.68;100170.38;102707;1260;138652;-69
2024/03/13 10:15:29;;;;;;;22.50;16.10;;;;;;;7.22;83.44;100173.20;102853;1256;97832;-68
2024/03/13 10:17:53;;;;;;;23.20;16.80;;;;;;;7.21;83.70;100170.46;102936;1260;112362;-68
2024/03/13 10:20:18;;;;;;;18.30;15.20;;;;;;;7.22;83.73;100169.92;102898;1261;138987;-68
2024/03/13 10:22:43;;;;;;;24.20;17.10;;;;;;;7.22;83.50;100172.52;102953;1260;97832;-68
2024/03/13 10:25:09;;;;;;;23.20;17.70;;;;;;;7.20;83.55;100166.84;102841;1262;138452;-68
2024/03/13 10:27:35;;;;;;;23.30;17.40;;;;;;;7.23;83.73;100171.63;103619;1260;97820;-67
2024/03/13 10:29:59;;;;;;;23.80;18.20;;;;;;;7.25;83.60;100171.41;102990;1257;111589;-68
2024/03/13 10:32:24;;;;;;;25.90;18.30;;;;;;;7.27;83.59;100170.50;102866;1256;138828;-68
2024/03/13 10:34:49;;;;;;;24.00;18.30;;;;;;;7.30;83.58;100171.84;103033;1261;97726;-68
2024/03/13 10:37:13;;;;;;;23.80;18.80;;;;;;;7.31;83.45;100170.42;102752;1259;138375;-68
2024/03/13 10:39:41;;;;;;;29.00;18.30;;;;;;;7.32;83.47;100170.23;102839;1262;98028;-68
2024/03/13 10:42:07;;;;;;;25.20;18.90;;;;;;;7.35;83.43;100170.34;102889;1261;110802;-68
2024/03/13 10:44:32;;;;;;;25.00;18.60;;;;;;;7.34;83.19;100167.59;102840;1256;107221;-68
2024/03/13 10:46:57;;;;;;;25.40;19.10;;;;;;;7.33;83.15;100171.61;102970;1256;97685;-68
2024/03/13 10:49:25;;;;;;;28.10;20.10;;;;;;;7.33;83.35;100172.98;102827;1256;138788;-68
2024/03/13 10:51:49;;;;;;;30.70;21.20;;;;;;;7.34;83.37;100174.16;102830;1260;97818;-68
2024/03/13 10:54:14;;;;;;;26.00;20.20;;;;;;;7.36;83.40;100172.23;102805;1256;138653;-68
2024/03/13 10:56:38;;;;;;;24.70;19.60;;;;;;;7.37;83.27;100172.73;102823;1257;107662;-69
2024/03/13 10:59:03;;;;;;;26.10;19.40;;;;;;;7.40;83.23;100171.48;102926;1260;97837;-68
2024/03/13 11:01:31;;;;;;;28.80;19.40;;;;;;;7.41;83.15;100171.78;102694;1261;138481;-68
2024/03/13 11:03:57;;;;;;;23.80;19.00;;;;;;;7.44;83.01;100175.52;102782;1256;97803;-70
2024/03/13 11:06:21;;;;;;;25.00;19.10;;;;;;;7.44;82.82;100172.40;102681;1261;139146;-70
2024/03/13 11:08:46;;;;;;;25.70;19.30;;;;;;;7.46;82.75;100173.58;102703;1257;106980;-69
2024/03/13 11:11:11;;;;;;;26.40;19.90;;;;;;;7.48;82.65;100170.08;102986;1254;98301;-69
2024/03/13 11:13:49;;;;;;;26.10;19.50;;;;;;;7.50;82.66;100167.61;102774;1256;138529;-69
2024/03/13 11:16:14;;;;;;;29.10;20.10;;;;;;;7.51;82.45;100167.94;102909;1254;97808;-69
2024/03/13 11:18:38;;;;;;;26.90;20.00;;;;;;;7.50;82.26;100164.67;102716;1260;138747;-69
2024/03/13 11:21:03;;;;;;;28.10;19.80;;;;;;;7.51;82.42;100168.10;102852;1256;106731;-69
2024/03/13 11:23:29;;;;;;;24.20;18.90;;;;;;;7.53;82.37;100163.39;102948;1256;97839;-70